Portada
METAR-TAF:

METAR-TAF

Aeropuertos :

Aeropuerto de Menorca

Menorca, España

latitud: 39-52N, longitud: 004-14E, altitud: 87 m

Observación

El informe se hizo hace 36 minutos, a las 08:30 UTC
Viento 14 kt del noreste, variando entre norte y este-noreste
Temperatura 28°C
Humedad 66%
Presión 1015 hPa
Visibilidad 10 km o más
Escasas nubes a una altura de 2000 ft

METAR: LEMH 140830Z 04014KT 360V060 9999 FEW020 28/21 Q1015

Hora: 11:06 (09:06 UTC)

Pronóstico

El informe se hizo hace 1 hora y 6 minutos, a las 08:00 UTC
Pronóstico válido del 14 a las 09 UTC al 15 a las 09 UTC
Viento 14 kt del este
Visibilidad 10 km o más
Escasas nubes a una altura de 2000 ft
Evolucionando progresivamente
del 14 a las 18 UTC al 14 a las 20 UTC
Viento 4 kt con dirección variable

TAF: LEMH 140800Z 1409/1509 08014KT 9999 FEW020 TX31/1415Z TN21/1505Z BECMG 1418/1420 VRB04KT

Observaciones y pronósticos meteorológicos de más de 4000 aeropuertos (mensajes METAR y TAF).

Los puntos amarillos y rojos representan las estaciones disponibles.

Ponga el ratón en el punto deseado para ver el nombre de la estación.

Haga clic para ver las observaciones y los pronósticos meteorológicos.

Para cambiar el mapa : haga clic en los botones verdes con una cruz de color negro para hacer un zoom, en el botón verde con un guión para alejar o en las flechas verdes para mapas adyacentes.


METAR-TAF: